Detalii statie TRANSAVIA GRUP [00001CF7]

Toti senzorii

Date Temperatura solului [C]Precipitatii [mm]Voltaj baterie [mV]HC Air temperature [C]HC Relative humidity [%]Punctul de roua [C]
medieminmaxsumaultimamedieminmaxmediemediemin
2017-06-25 06:00:00 19.8 19.7 19.9 0 6864 12.03 10.91 13.6 100 12 10.9
2017-06-25 07:00:00 19.5 19.4 19.8 0 6932 15.88 13.9 17.86 99.94 15.8 13.9
2017-06-25 08:00:00 19.4 19.3 19.5 0 7030 20.1 18.32 22.37 81.96 16.6 14.7
2017-06-25 09:00:00 19.5 19.5 19.6 0 7264 24.14 23.25 25.23 56.04 14.6 13.5
2017-06-25 10:00:00 19.7 19.5 19.9 0 7304 26.07 24.24 27.78 51.8 15.1 14.3
2017-06-25 11:00:00 20.1 19.9 20.3 0 7294 27.75 26.98 28.96 42.78 13.7 12.7
2017-06-25 12:00:00 20.6 20.4 20.9 0 7294 28.94 28.17 29.86 37.47 12.7 10.9
2017-06-25 13:00:00 21.2 21 21.6 0 7294 30.06 29.26 31.05 37.64 13.7 12.4
2017-06-25 14:00:00 21.9 21.5 22.2 0 7294 30.88 30.08 32.11 32.4 12 8.4
2017-06-25 15:00:00 22.4 22.2 22.8 0 7294 30.7 30.04 31.23 30.68 11 8
2017-06-25 16:00:00 22.9 22.8 23.2 0 7284 31.24 30.58 32.32 31.37 12 10.9
2017-06-25 17:00:00 23.2 23.1 23.4 0 7166 32.3 31.05 33.08 31.19 12.8 11.4
2017-06-25 18:00:00 23.4 23.3 23.5 0 7274 31.44 30.82 32.42 33.09 13 11.9
2017-06-25 19:00:00 23.5 23.4 23.6 0 6962 30.72 27.54 32.21 39.84 15.1 12.8
2017-06-25 20:00:00 23.4 23.4 23.5 0 6932 25.32 22.41 27.19 61.73 17.2 15.9
2017-06-25 21:00:00 23.2 23.1 23.5 0 6914 20.76 19.91 21.82 84.32 17.8 17
2017-06-25 22:00:00 23 22.8 23.2 0 6894 18.51 17.84 19.39 94.71 17.5 17.2
2017-06-25 23:00:00 22.6 22.5 22.8 0 6884 17.37 17.07 17.8 99.82 17.2 17
2017-06-26 00:00:00 22.3 22.2 22.7 0 6874 16.62 16.23 17.23 100 16.5 16.2
2017-06-26 01:00:00 22.1 22 22.2 0 6864 15.82 15.43 16.28 100 15.7 15.4
2017-06-26 02:00:00 21.8 21.7 21.9 0 6854 15.08 14.56 15.58 100 15 14.5
2017-06-26 03:00:00 21.5 21.4 21.7 0 6854 14.75 14.54 15.15 100 14.7 14.5
2017-06-26 04:00:00 21.2 21.1 21.5 0 6844 14.48 13.95 14.89 100 14.4 13.9
2017-06-26 05:00:00 21 21 21.2 0 6826 14.31 13.89 14.77 100 14.2 13.8
2017-06-26 06:00:00 20.8 20.6 21 0 6874 15.59 14.61 16.44 100 15.5 14.6
2017-06-26 07:00:00 20.6 20.5 20.9 0 7030 19.19 16.97 21.02 93.47 17.9 16.9
2017-06-26 08:00:00 20.5 20.4 20.8 0 7158 22.36 21.33 24.03 78.42 18.2 17.9
2017-06-26 09:00:00 20.6 20.6 20.7 0 7304 24.64 23.87 25.69 69.34 18.5 18.1
2017-06-26 10:00:00 20.8 20.6 21 0 7294 24.93 24.62 25.31 68.98 18.6 17.8
2017-06-26 11:00:00 21.1 21 21.3 0 7294 25.37 24.7 26.01 65.14 18.1 17
2017-06-26 12:00:00 21.4 21.3 21.6 0 7304 27 26.09 27.88 56.95 17.4 16.4
2017-06-26 13:00:00 21.9 21.7 22.1 0 7304 27.74 26.68 29.07 54.84 17.6 16.5
2017-06-26 14:00:00 22.3 22.2 22.5 0 7176 27.47 25.89 29.13 55.56 17.5 17
2017-06-26 15:00:00 22.6 22.5 22.7 0 7304 23 22.39 25.18 82.24 19.5 17.8
2017-06-26 16:00:00 22.6 22.5 22.7 0.8 6992 22.42 21.76 22.97 92.16 20.9 20.2
2017-06-26 17:00:00 22.5 22.3 22.7 1.4 6942 20.86 20.6 21.5 100 20.8 20.6
2017-06-26 18:00:00 22.4 22.3 22.6 0 7216 21.03 20.39 21.59 99.23 20.8 20.3
2017-06-26 19:00:00 22.3 22.2 22.4 0 7284 23.34 22.04 24.03 84.85 20.4 19.6
2017-06-26 20:00:00 22.3 22.2 22.4 0 6932 21.59 20.41 23.26 93.39 20.3 20.1
2017-06-26 21:00:00 22.2 22.1 22.3 0 6914 19.66 19.19 20.12 95.75 18.8 18
2017-06-26 22:00:00 22 21.9 22.1 0 6874 18.71 18.1 19.68 98.6 18.4 18.1
2017-06-26 23:00:00 21.8 21.7 21.9 0 6854 18.3 17.77 18.63 98.33 17.9 17.1
2017-06-27 00:00:00 21.6 21.5 21.8 0 6844 17.56 17.23 17.88 95.64 16.7 16.4